createdAt,value
2023-01-20T00:00:08.517Z,8.87
2023-01-20T00:02:42.174Z,8.73
2023-01-20T00:05:10.804Z,8.57
2023-01-20T00:07:39.241Z,9.50
2023-01-20T00:10:08.578Z,9.03
2023-01-20T00:12:37.184Z,8.90
2023-01-20T00:15:06.059Z,9.63
2023-01-20T00:17:34.491Z,10.70
2023-01-20T00:20:04.401Z,9.17
2023-01-20T00:22:32.989Z,11.23
2023-01-20T00:25:01.527Z,12.57
2023-01-20T00:27:29.946Z,11.53
2023-01-20T00:29:58.349Z,12.03
2023-01-20T00:32:26.783Z,11.30
2023-01-20T00:34:55.520Z,11.50
2023-01-20T00:37:25.312Z,10.97
2023-01-20T00:39:53.722Z,11.67
2023-01-20T00:42:22.298Z,10.40
2023-01-20T00:44:50.800Z,11.03
2023-01-20T00:47:20.960Z,12.70
2023-01-20T00:49:49.722Z,12.30
2023-01-20T00:52:18.855Z,11.67
2023-01-20T00:54:48.635Z,12.13
2023-01-20T00:57:17.022Z,12.40
2023-01-20T00:59:45.454Z,12.60
2023-01-20T01:02:13.944Z,12.87
2023-01-20T01:04:42.509Z,12.07
2023-01-20T01:07:11.419Z,11.50
2023-01-20T01:09:39.874Z,12.27
2023-01-20T01:12:10.000Z,11.63
2023-01-20T01:14:38.394Z,12.40
2023-01-20T01:17:06.889Z,11.57
2023-01-20T01:19:35.270Z,11.87
2023-01-20T01:22:03.685Z,12.57
2023-01-20T01:24:32.155Z,11.43
2023-01-20T01:27:00.577Z,10.57
2023-01-20T01:29:30.415Z,11.83
2023-01-20T01:31:59.025Z,11.40
2023-01-20T01:34:27.432Z,10.43
2023-01-20T01:36:55.826Z,11.03
2023-01-20T01:39:24.293Z,10.67
2023-01-20T01:41:52.718Z,11.10
2023-01-20T01:44:21.915Z,11.23
2023-01-20T01:46:51.747Z,10.97
2023-01-20T01:49:22.676Z,12.10
2023-01-20T01:51:53.076Z,12.03
2023-01-20T01:54:23.279Z,12.40
2023-01-20T01:56:52.890Z,13.27
2023-01-20T01:59:21.956Z,12.03
2023-01-20T02:01:53.040Z,12.20
2023-01-20T02:04:22.468Z,10.97
2023-01-20T02:06:51.706Z,11.37
2023-01-20T02:09:20.286Z,13.43
2023-01-20T02:11:49.793Z,12.57
2023-01-20T02:14:18.517Z,12.07
2023-01-20T02:16:55.530Z,11.37
2023-01-20T02:19:35.625Z,11.27
2023-01-20T02:22:09.641Z,10.00
2023-01-20T02:24:55.844Z,9.43
2023-01-20T02:27:32.918Z,9.13
2023-01-20T02:30:12.237Z,9.50
2023-01-20T02:32:47.880Z,9.87
2023-01-20T02:35:20.159Z,9.67
2023-01-20T02:37:49.528Z,10.23
2023-01-20T02:40:22.929Z,9.67
2023-01-20T02:42:56.888Z,9.43
2023-01-20T02:45:27.830Z,9.87
2023-01-20T02:47:59.121Z,9.80
2023-01-20T02:50:30.852Z,9.73
2023-01-20T02:53:01.226Z,9.53
2023-01-20T02:55:31.650Z,8.57
2023-01-20T02:58:02.763Z,8.33
2023-01-20T03:00:34.710Z,8.97
2023-01-20T03:03:08.273Z,9.17
2023-01-20T03:05:41.687Z,9.53
2023-01-20T03:08:12.483Z,9.83
2023-01-20T03:10:42.919Z,10.10
2023-01-20T03:13:13.779Z,10.37
2023-01-20T03:15:47.540Z,9.97
2023-01-20T03:18:17.454Z,9.93
2023-01-20T03:20:46.085Z,10.07
2023-01-20T03:23:14.483Z,10.03
2023-01-20T03:25:43.145Z,9.63
2023-01-20T03:28:11.717Z,9.10
2023-01-20T03:30:40.249Z,9.33
2023-01-20T03:33:09.435Z,9.60
2023-01-20T03:35:39.857Z,9.67
2023-01-20T03:38:08.442Z,9.00
2023-01-20T03:40:40.476Z,9.10
2023-01-20T03:43:13.254Z,8.93
2023-01-20T03:45:44.240Z,8.27
2023-01-20T03:48:15.498Z,7.97
2023-01-20T03:50:48.281Z,8.17
2023-01-20T03:53:23.967Z,8.77
2023-01-20T03:55:54.120Z,8.83
2023-01-20T03:58:25.514Z,7.97
2023-01-20T04:00:55.190Z,8.40
2023-01-20T04:03:25.178Z,8.53
2023-01-20T04:05:55.182Z,8.33
2023-01-20T04:08:26.467Z,9.33
2023-01-20T04:10:54.901Z,7.93
2023-01-20T04:13:23.308Z,7.97
2023-01-20T04:15:52.047Z,8.40
2023-01-20T04:18:22.170Z,8.50
2023-01-20T04:20:52.064Z,8.40
2023-01-20T04:23:24.049Z,8.47
2023-01-20T04:25:52.541Z,9.30
2023-01-20T04:28:20.989Z,8.97
2023-01-20T04:30:49.772Z,8.50
2023-01-20T04:33:18.277Z,8.97
2023-01-20T04:35:46.902Z,9.17
2023-01-20T04:38:15.336Z,10.33
2023-01-20T04:40:45.195Z,9.87
2023-01-20T04:43:13.817Z,10.23
2023-01-20T04:45:42.834Z,10.50
2023-01-20T04:48:11.717Z,9.97
2023-01-20T04:50:40.662Z,10.50
2023-01-20T04:53:09.728Z,11.43
2023-01-20T04:55:38.189Z,11.40
2023-01-20T04:58:08.045Z,10.87
2023-01-20T05:00:36.471Z,11.63
2023-01-20T05:03:06.211Z,11.97
2023-01-20T05:05:35.065Z,11.17
2023-01-20T05:08:04.797Z,11.40
2023-01-20T05:10:33.722Z,11.97
2023-01-20T05:13:02.822Z,12.10
2023-01-20T05:15:33.029Z,12.53
2023-01-20T05:18:01.919Z,12.33
2023-01-20T05:20:30.418Z,12.33
2023-01-20T05:23:01.383Z,12.23
2023-01-20T05:25:30.307Z,12.27
2023-01-20T05:28:00.145Z,12.50
2023-01-20T05:30:29.809Z,11.77
2023-01-20T05:32:59.805Z,12.63
2023-01-20T05:35:28.615Z,13.07
2023-01-20T05:37:57.462Z,13.83
2023-01-20T05:40:25.901Z,14.60
2023-01-20T05:42:54.343Z,13.10
2023-01-20T05:45:22.807Z,14.30
2023-01-20T05:47:56.150Z,14.03
2023-01-20T05:50:26.292Z,16.03
2023-01-20T05:52:54.773Z,15.63
2023-01-20T05:55:23.376Z,15.70
2023-01-20T05:57:51.766Z,14.73
2023-01-20T06:00:20.783Z,14.47
2023-01-20T06:02:49.256Z,15.20
2023-01-20T06:05:18.091Z,16.00
2023-01-20T06:07:49.732Z,16.03
2023-01-20T06:10:18.735Z,18.33
2023-01-20T06:12:53.394Z,16.50
2023-01-20T06:15:23.685Z,18.13
2023-01-20T06:17:52.173Z,18.40
2023-01-20T06:20:21.246Z,16.70
2023-01-20T06:22:51.090Z,17.07
2023-01-20T06:25:19.575Z,16.67
2023-01-20T06:27:48.312Z,17.10
2023-01-20T06:30:17.174Z,16.90
2023-01-20T06:32:47.615Z,17.10
2023-01-20T06:35:17.230Z,18.00
2023-01-20T06:37:47.659Z,19.20
2023-01-20T06:40:17.955Z,18.27
2023-01-20T06:42:48.009Z,17.10
2023-01-20T06:45:17.371Z,16.93
2023-01-20T06:47:45.800Z,17.27
2023-01-20T06:50:14.293Z,19.33
2023-01-20T06:52:42.680Z,19.27
2023-01-20T06:55:11.817Z,17.13
2023-01-20T06:57:41.837Z,14.00
2023-01-20T07:00:25.763Z,12.83
2023-01-20T07:02:54.310Z,12.20
2023-01-20T07:05:22.807Z,12.17
2023-01-20T07:07:51.550Z,11.07
2023-01-20T07:10:20.136Z,11.10
2023-01-20T07:12:49.909Z,11.73
2023-01-20T07:15:18.537Z,13.43
2023-01-20T07:17:46.908Z,12.83
2023-01-20T07:20:15.456Z,11.70
2023-01-20T07:22:43.956Z,12.83
2023-01-20T07:25:13.063Z,13.50
2023-01-20T07:27:42.369Z,11.37
2023-01-20T07:30:12.985Z,14.30
2023-01-20T07:32:41.519Z,12.53
2023-01-20T07:35:10.366Z,13.83
2023-01-20T07:37:38.962Z,15.63
2023-01-20T07:40:08.451Z,14.87
2023-01-20T07:42:38.736Z,13.60
2023-01-20T07:45:07.788Z,13.83
2023-01-20T07:47:37.664Z,13.90
2023-01-20T07:50:06.442Z,14.67
2023-01-20T07:52:35.015Z,15.10
2023-01-20T07:55:03.681Z,15.07
2023-01-20T07:57:32.119Z,15.83
2023-01-20T08:00:00.623Z,14.00
2023-01-20T08:02:29.155Z,13.73
2023-01-20T08:04:59.265Z,13.47
2023-01-20T08:07:27.846Z,12.87
2023-01-20T08:09:56.434Z,12.90
2023-01-20T08:12:24.870Z,13.40
2023-01-20T08:14:53.287Z,13.80
2023-01-20T08:17:21.930Z,11.43
2023-01-20T08:19:50.472Z,12.13
2023-01-20T08:22:20.387Z,12.03
2023-01-20T08:24:48.790Z,12.23
2023-01-20T08:27:17.336Z,11.63
2023-01-20T08:29:46.092Z,11.17
2023-01-20T08:32:14.722Z,10.07
2023-01-20T08:34:43.360Z,11.30
2023-01-20T08:37:12.024Z,12.03
2023-01-20T08:39:42.093Z,11.20
2023-01-20T08:42:10.499Z,10.87
2023-01-20T08:44:38.935Z,11.90
2023-01-20T08:47:07.495Z,11.60
2023-01-20T08:49:36.146Z,11.87
2023-01-20T08:52:04.748Z,13.53
2023-01-20T08:54:34.657Z,11.20
2023-01-20T08:57:04.421Z,10.87
2023-01-20T08:59:32.973Z,10.07
2023-01-20T09:02:01.567Z,9.97
2023-01-20T09:04:30.898Z,10.37
2023-01-20T09:06:59.292Z,11.20
2023-01-20T09:09:27.817Z,10.13
2023-01-20T09:11:56.242Z,10.30
2023-01-20T09:14:26.898Z,10.73
2023-01-20T09:16:55.348Z,11.00
2023-01-20T09:19:24.022Z,11.50
2023-01-20T09:21:52.635Z,13.27
2023-01-20T09:24:21.052Z,11.43
2023-01-20T09:26:49.594Z,11.87
2023-01-20T09:29:18.859Z,11.23
2023-01-20T09:31:51.033Z,12.20
2023-01-20T09:34:23.147Z,12.70
2023-01-20T09:36:52.456Z,12.63
2023-01-20T09:39:41.990Z,13.87
2023-01-20T09:42:37.061Z,13.93
2023-01-20T09:45:25.028Z,14.63
2023-01-20T09:48:03.586Z,13.20
2023-01-20T09:50:54.230Z,12.63
2023-01-20T09:53:32.732Z,14.57
2023-01-20T09:56:02.974Z,14.30
2023-01-20T09:58:34.513Z,13.50
2023-01-20T10:01:08.847Z,14.27
2023-01-20T10:03:41.993Z,15.47
2023-01-20T10:06:12.927Z,16.63
2023-01-20T10:09:03.734Z,14.40
2023-01-20T10:11:38.322Z,14.47
2023-01-20T10:14:15.070Z,16.13
2023-01-20T10:16:49.687Z,16.07
2023-01-20T10:19:27.269Z,14.87
2023-01-20T10:22:04.837Z,17.13
2023-01-20T10:24:36.532Z,17.60
2023-01-20T10:27:05.905Z,16.87
2023-01-20T10:29:37.356Z,15.00
2023-01-20T10:32:13.397Z,14.93
2023-01-20T10:34:47.360Z,14.73
2023-01-20T10:37:16.468Z,16.63
2023-01-20T10:39:50.913Z,15.50
2023-01-20T10:42:20.173Z,17.13
2023-01-20T10:44:51.036Z,15.37
2023-01-20T10:47:43.182Z,17.10
2023-01-20T10:50:51.316Z,17.00
2023-01-20T10:53:36.982Z,16.27
2023-01-20T10:56:15.669Z,17.07
2023-01-20T10:58:46.715Z,17.17
2023-01-20T11:01:17.638Z,17.17
2023-01-20T11:03:48.592Z,19.10
2023-01-20T11:06:21.366Z,19.33
2023-01-20T11:08:50.080Z,19.40
2023-01-20T11:11:20.532Z,19.20
2023-01-20T11:13:51.604Z,18.20
2023-01-20T11:16:23.121Z,17.80
2023-01-20T11:18:57.112Z,18.47
2023-01-20T11:21:28.097Z,19.40
2023-01-20T11:24:02.985Z,18.10
2023-01-20T11:26:34.538Z,16.73
2023-01-20T11:29:04.144Z,17.00
2023-01-20T11:31:38.822Z,19.53
2023-01-20T11:34:26.074Z,18.43
2023-01-20T11:37:17.882Z,18.40
2023-01-20T11:39:58.144Z,18.80
2023-01-20T11:42:28.663Z,18.97
2023-01-20T11:45:15.214Z,18.93
2023-01-20T11:47:48.911Z,19.20
2023-01-20T11:50:25.316Z,19.93
2023-01-20T11:53:12.901Z,20.27
2023-01-20T11:55:47.109Z,20.73
2023-01-20T11:58:19.706Z,20.37
2023-01-20T12:00:49.216Z,19.63
2023-01-20T12:03:26.903Z,19.33
2023-01-20T12:05:57.928Z,18.63
2023-01-20T12:08:30.034Z,17.80
2023-01-20T12:11:01.477Z,21.33
2023-01-20T12:13:32.296Z,18.43
2023-01-20T12:16:02.954Z,18.90
2023-01-20T12:18:36.632Z,19.23
2023-01-20T12:21:09.316Z,18.87
2023-01-20T12:23:45.739Z,18.73
2023-01-20T12:26:15.987Z,20.17
2023-01-20T12:28:49.077Z,19.57
2023-01-20T12:31:20.321Z,20.33
2023-01-20T12:33:51.770Z,18.17
2023-01-20T12:36:38.489Z,15.47
2023-01-20T12:39:17.510Z,14.37
2023-01-20T12:41:56.935Z,16.40
2023-01-20T12:44:26.422Z,15.10
2023-01-20T12:47:00.604Z,15.73
2023-01-20T12:49:45.198Z,15.60
2023-01-20T12:52:28.568Z,14.43
2023-01-20T12:55:07.820Z,12.63
2023-01-20T12:57:41.133Z,12.20
2023-01-20T13:00:17.776Z,12.47
2023-01-20T13:03:11.879Z,13.57
2023-01-20T13:05:45.929Z,14.63
2023-01-20T13:08:19.628Z,14.50
2023-01-20T13:10:57.952Z,12.90
2023-01-20T13:13:32.718Z,13.60
2023-01-20T13:16:03.851Z,13.27
2023-01-20T13:18:36.946Z,12.50
2023-01-20T13:21:06.853Z,12.93
2023-01-20T13:23:37.157Z,10.57
2023-01-20T13:26:07.883Z,11.37
2023-01-20T13:28:36.358Z,12.03
2023-01-20T13:31:24.863Z,11.80
2023-01-20T13:33:53.800Z,12.53
2023-01-20T13:36:23.331Z,11.30
2023-01-20T13:38:52.705Z,12.30
2023-01-20T13:41:42.789Z,13.13
2023-01-20T13:44:26.200Z,12.40
2023-01-20T13:46:56.017Z,11.27
2023-01-20T13:49:26.955Z,11.37
2023-01-20T13:51:56.592Z,11.63
2023-01-20T13:54:38.990Z,11.67
2023-01-20T13:57:32.961Z,11.67
2023-01-20T14:00:01.726Z,12.33
2023-01-20T14:02:41.385Z,12.33
2023-01-20T14:05:23.336Z,12.73
2023-01-20T14:07:53.317Z,11.70
2023-01-20T14:10:22.173Z,11.70
2023-01-20T14:12:50.697Z,11.60
2023-01-20T14:15:32.273Z,11.50
2023-01-20T14:18:02.438Z,12.13
2023-01-20T14:20:31.979Z,12.40
2023-01-20T14:23:15.273Z,11.93
2023-01-20T14:25:43.783Z,12.23
2023-01-20T14:28:20.546Z,11.57
2023-01-20T14:30:50.868Z,11.50
2023-01-20T14:33:21.499Z,11.80
2023-01-20T14:35:50.323Z,11.67
2023-01-20T14:38:19.471Z,11.23
2023-01-20T14:40:50.827Z,10.73
2023-01-20T14:43:20.590Z,12.03
2023-01-20T14:45:51.601Z,11.77
2023-01-20T14:48:33.836Z,12.37
2023-01-20T14:51:04.635Z,12.13
2023-01-20T14:53:34.128Z,12.33
2023-01-20T14:56:03.591Z,12.73
2023-01-20T14:58:32.902Z,12.83
2023-01-20T15:01:02.901Z,14.40
2023-01-20T15:03:33.090Z,13.47
2023-01-20T15:06:02.812Z,13.23
2023-01-20T15:08:57.016Z,13.47
2023-01-20T15:11:31.386Z,13.73
2023-01-20T15:14:13.638Z,13.20
2023-01-20T15:16:46.615Z,11.33
2023-01-20T15:19:33.455Z,11.83
2023-01-20T15:22:31.848Z,11.93
2023-01-20T15:25:14.353Z,11.20
2023-01-20T15:27:44.092Z,10.83
2023-01-20T15:30:21.103Z,11.53
2023-01-20T15:32:50.323Z,11.53
2023-01-20T15:35:22.824Z,11.90
2023-01-20T15:37:51.831Z,11.67
2023-01-20T15:40:22.468Z,11.53
2023-01-20T15:42:51.142Z,11.47
2023-01-20T15:45:20.257Z,10.47
2023-01-20T15:47:49.761Z,10.00
2023-01-20T15:50:19.772Z,10.57
2023-01-20T15:52:49.488Z,10.43
2023-01-20T15:55:19.229Z,10.87
2023-01-20T15:57:51.594Z,10.17
2023-01-20T16:00:21.253Z,10.17
2023-01-20T16:02:49.814Z,9.33
2023-01-20T16:05:18.270Z,8.60
2023-01-20T16:07:47.830Z,9.60
2023-01-20T16:10:18.185Z,9.20
2023-01-20T16:12:49.565Z,8.80
2023-01-20T16:15:24.054Z,9.07
2023-01-20T16:17:54.166Z,8.47
2023-01-20T16:20:24.260Z,8.20
2023-01-20T16:22:52.968Z,8.23
2023-01-20T16:25:21.682Z,7.97
2023-01-20T16:27:51.596Z,9.27
2023-01-20T16:30:21.097Z,8.73
2023-01-20T16:32:49.827Z,8.37
2023-01-20T16:35:19.708Z,9.17
2023-01-20T16:37:49.000Z,8.23
2023-01-20T16:40:19.189Z,8.63
2023-01-20T16:42:48.247Z,9.40
2023-01-20T16:45:28.664Z,8.33
2023-01-20T16:47:57.491Z,8.70
2023-01-20T16:50:28.360Z,9.17
2023-01-20T16:52:56.930Z,9.47
2023-01-20T16:55:25.626Z,8.80
2023-01-20T16:57:54.347Z,8.33
2023-01-20T17:00:23.719Z,8.57
2023-01-20T17:02:54.014Z,8.67
2023-01-20T17:05:25.610Z,7.80
2023-01-20T17:07:54.511Z,9.17
2023-01-20T17:10:23.248Z,8.27
2023-01-20T17:12:53.148Z,8.37
2023-01-20T17:15:21.539Z,8.87
2023-01-20T17:17:50.298Z,9.43
2023-01-20T17:20:20.550Z,9.33
2023-01-20T17:22:49.774Z,9.03
2023-01-20T17:25:18.330Z,9.23
2023-01-20T17:27:47.009Z,9.57
2023-01-20T17:30:16.753Z,10.37
2023-01-20T17:32:48.288Z,10.67
2023-01-20T17:35:16.915Z,9.80
2023-01-20T17:37:46.684Z,9.80
2023-01-20T17:40:16.065Z,10.20
2023-01-20T17:42:46.417Z,10.37
2023-01-20T17:45:14.974Z,10.50
2023-01-20T17:47:43.412Z,10.33
2023-01-20T17:50:12.537Z,10.37
2023-01-20T17:52:41.360Z,10.73
2023-01-20T17:55:12.057Z,10.37
2023-01-20T17:57:40.451Z,10.60
2023-01-20T18:00:09.661Z,11.33
2023-01-20T18:02:38.106Z,9.83
2023-01-20T18:05:07.345Z,11.10
2023-01-20T18:07:35.752Z,10.83
2023-01-20T18:10:04.697Z,10.43
2023-01-20T18:12:34.532Z,11.27
2023-01-20T18:15:02.988Z,11.90
2023-01-20T18:17:34.242Z,12.27
2023-01-20T18:20:03.189Z,11.77
2023-01-20T18:22:33.051Z,11.63
2023-01-20T18:25:02.615Z,12.43
2023-01-20T18:27:31.226Z,11.93
2023-01-20T18:30:01.130Z,12.30
2023-01-20T18:32:29.986Z,12.33
2023-01-20T18:34:58.440Z,13.27
2023-01-20T18:37:27.009Z,12.20
2023-01-20T18:39:55.528Z,11.57
2023-01-20T18:42:24.289Z,12.87
2023-01-20T18:44:52.965Z,12.93
2023-01-20T18:47:23.148Z,12.73
2023-01-20T18:49:51.595Z,11.97
2023-01-20T18:52:20.205Z,12.23
2023-01-20T18:54:48.689Z,12.73
2023-01-20T18:57:17.257Z,12.70
2023-01-20T18:59:45.723Z,12.37
2023-01-20T19:02:14.149Z,12.37
2023-01-20T19:04:43.898Z,12.53
2023-01-20T19:07:12.315Z,12.53
2023-01-20T19:09:40.720Z,14.37
2023-01-20T19:12:09.527Z,13.40
2023-01-20T19:14:37.963Z,13.50
2023-01-20T19:17:06.398Z,12.27
2023-01-20T19:19:34.857Z,13.43
2023-01-20T19:22:06.055Z,12.83
2023-01-20T19:24:35.190Z,13.40
2023-01-20T19:27:03.806Z,13.23
2023-01-20T19:29:32.341Z,13.80
2023-01-20T19:32:00.733Z,12.87
2023-01-20T19:34:29.148Z,11.90
2023-01-20T19:36:59.897Z,13.37
2023-01-20T19:39:29.724Z,12.80
2023-01-20T19:41:59.400Z,12.93
2023-01-20T19:44:27.932Z,15.33
2023-01-20T19:46:58.873Z,16.90
2023-01-20T19:49:27.600Z,15.23
2023-01-20T19:51:56.043Z,14.53
2023-01-20T19:54:28.472Z,13.13
2023-01-20T19:56:58.280Z,13.53
2023-01-20T19:59:26.952Z,12.90
2023-01-20T20:01:55.416Z,13.63
2023-01-20T20:04:25.384Z,14.13
2023-01-20T20:06:53.913Z,13.03
2023-01-20T20:09:23.503Z,13.87
2023-01-20T20:11:52.400Z,13.57
2023-01-20T20:14:23.416Z,13.73
2023-01-20T20:16:51.929Z,14.43
2023-01-20T20:19:21.670Z,13.83
2023-01-20T20:21:50.713Z,15.07
2023-01-20T20:24:20.120Z,15.17
2023-01-20T20:26:49.467Z,14.20
2023-01-20T20:29:18.667Z,14.43
2023-01-20T20:31:48.760Z,15.27
2023-01-20T20:34:18.058Z,15.90
2023-01-20T20:36:46.902Z,14.40
2023-01-20T20:39:16.848Z,13.60
2023-01-20T20:41:45.838Z,14.77
2023-01-20T20:44:14.709Z,14.60
2023-01-20T20:46:43.591Z,15.53
2023-01-20T20:49:14.681Z,15.13
2023-01-20T20:51:43.362Z,15.13
2023-01-20T20:54:13.132Z,14.43
2023-01-20T20:56:41.979Z,16.00
2023-01-20T20:59:11.119Z,14.23
2023-01-20T21:01:39.742Z,14.57
2023-01-20T21:04:08.791Z,14.17
2023-01-20T21:06:38.774Z,15.03
2023-01-20T21:09:07.188Z,15.03
2023-01-20T21:11:37.864Z,16.10
2023-01-20T21:14:07.291Z,15.30
2023-01-20T21:16:35.811Z,14.63
2023-01-20T21:19:05.124Z,15.93
2023-01-20T21:21:33.908Z,13.40
2023-01-20T21:24:04.299Z,14.97
2023-01-20T21:26:33.833Z,16.03
2023-01-20T21:29:03.841Z,14.80
2023-01-20T21:31:32.549Z,14.50
2023-01-20T21:34:01.281Z,14.10
2023-01-20T21:36:30.555Z,15.87
2023-01-20T21:38:59.927Z,15.50
2023-01-20T21:41:29.669Z,15.77
2023-01-20T21:44:16.854Z,16.90
2023-01-20T21:46:45.539Z,16.23
2023-01-20T21:49:31.763Z,16.87
2023-01-20T21:52:18.068Z,17.73
2023-01-20T21:54:46.775Z,17.47
2023-01-20T21:57:16.664Z,17.43
2023-01-20T21:59:45.927Z,17.23
2023-01-20T22:02:15.361Z,17.30
2023-01-20T22:04:46.227Z,18.30
2023-01-20T22:07:16.709Z,16.07
2023-01-20T22:09:45.352Z,16.90
2023-01-20T22:12:14.215Z,18.23
2023-01-20T22:14:44.175Z,16.90
2023-01-20T22:17:13.324Z,18.37
2023-01-20T22:19:41.961Z,17.60
2023-01-20T22:22:10.573Z,17.63
2023-01-20T22:24:39.151Z,18.30
2023-01-20T22:27:07.583Z,17.97
2023-01-20T22:29:36.352Z,19.47
2023-01-20T22:32:06.336Z,17.47
2023-01-20T22:34:34.909Z,17.53
2023-01-20T22:37:03.938Z,17.37
2023-01-20T22:39:32.355Z,19.33
2023-01-20T22:42:00.874Z,17.10
2023-01-20T22:44:29.234Z,18.53
2023-01-20T22:46:58.099Z,18.93
2023-01-20T22:49:29.905Z,18.43
2023-01-20T22:51:58.337Z,17.57
2023-01-20T22:54:26.795Z,18.30
2023-01-20T22:56:55.278Z,18.30
2023-01-20T22:59:23.668Z,19.00
2023-01-20T23:01:52.877Z,18.30
2023-01-20T23:04:21.358Z,16.90
2023-01-20T23:06:51.402Z,18.30
2023-01-20T23:09:19.815Z,17.67
2023-01-20T23:11:49.431Z,17.80
2023-01-20T23:14:17.933Z,16.10
2023-01-20T23:16:46.408Z,18.23
2023-01-20T23:19:14.853Z,17.73
2023-01-20T23:21:43.422Z,18.00
2023-01-20T23:24:13.134Z,18.00
2023-01-20T23:26:41.556Z,18.60
2023-01-20T23:29:10.506Z,17.90
2023-01-20T23:31:38.680Z,18.07
2023-01-20T23:34:07.138Z,18.27
2023-01-20T23:36:35.279Z,18.03
2023-01-20T23:39:03.575Z,17.47
2023-01-20T23:41:33.053Z,17.60
2023-01-20T23:44:01.191Z,16.73
2023-01-20T23:46:29.306Z,17.37
2023-01-20T23:48:57.397Z,17.30
2023-01-20T23:51:25.537Z,16.87
2023-01-20T23:53:53.595Z,16.63
2023-01-20T23:56:24.693Z,16.30
2023-01-20T23:58:54.241Z,16.73
